Time;durP1;ratioP1;P1;durP2;ratioP2;P2;SDS_P1;SDS_P2;PMS_P1;PMS_P2;Temp;Humidity;BMP_temperature;BMP_pressure;BME280_temperature;BME280_humidity;BME280_pressure;Samples;Min_cycle;Max_cycle;Signal;HPM_P1;HPM_P2
2023/04/18 00:00:12;;;;;;;13.37;11.80;;;11.30;99.90;;;;;;4997077;28;20604;-66
2023/04/18 00:02:38;;;;;;;13.87;12.37;;;11.30;99.90;;;;;;5005015;28;20200;-66
2023/04/18 00:05:06;;;;;;;12.50;11.30;;;11.30;99.90;;;;;;5002061;28;20482;-66
2023/04/18 00:07:33;;;;;;;15.40;13.10;;;11.20;99.90;;;;;;5005309;28;20433;-66
2023/04/18 00:09:58;;;;;;;13.73;11.53;;;11.20;99.90;;;;;;5003547;28;20544;-66
2023/04/18 00:12:24;;;;;;;18.07;11.73;;;11.20;99.90;;;;;;5001812;28;20440;-66
2023/04/18 00:14:50;;;;;;;14.13;11.93;;;11.10;99.90;;;;;;5003357;28;20193;-66
2023/04/18 00:17:16;;;;;;;14.30;12.80;;;11.10;99.90;;;;;;5003005;28;20184;-66
2023/04/18 00:19:42;;;;;;;12.93;11.67;;;11.10;99.90;;;;;;5000839;28;20439;-66
2023/04/18 00:22:09;;;;;;;14.30;12.30;;;11.00;99.90;;;;;;5002530;28;20181;-66
2023/04/18 00:24:34;;;;;;;15.27;13.57;;;11.00;99.90;;;;;;5001262;28;20213;-66
2023/04/18 00:27:00;;;;;;;17.20;11.90;;;11.00;99.90;;;;;;5018951;28;20450;-66
2023/04/18 00:29:26;;;;;;;20.83;14.23;;;11.00;99.90;;;;;;5003645;28;20666;-65
2023/04/18 00:31:52;;;;;;;16.40;14.60;;;11.00;99.90;;;;;;5001695;28;20621;-66
2023/04/18 00:34:17;;;;;;;18.57;13.50;;;11.00;99.90;;;;;;5004037;28;20875;-66
2023/04/18 00:36:43;;;;;;;16.03;14.33;;;11.00;99.90;;;;;;5003400;28;20177;-66
2023/04/18 00:39:08;;;;;;;14.73;13.13;;;10.90;99.90;;;;;;5002284;28;20204;-66
2023/04/18 00:41:34;;;;;;;16.90;13.77;;;10.90;99.90;;;;;;4998628;28;20209;-66
2023/04/18 00:43:59;;;;;;;16.03;12.63;;;10.90;99.90;;;;;;5003451;28;20205;-66
2023/04/18 00:46:25;;;;;;;13.73;11.10;;;10.90;99.90;;;;;;5002959;28;20185;-66
2023/04/18 00:48:50;;;;;;;12.20;10.97;;;10.80;99.90;;;;;;4999298;28;20181;-66
2023/04/18 00:51:16;;;;;;;16.90;14.10;;;10.80;99.90;;;;;;5001350;28;20189;-66
2023/04/18 00:53:43;;;;;;;17.07;13.57;;;10.80;99.90;;;;;;5003312;28;20177;-66
2023/04/18 00:56:09;;;;;;;14.20;12.20;;;10.70;99.90;;;;;;5000909;28;20207;-66
2023/04/18 00:58:35;;;;;;;14.90;13.10;;;10.80;99.90;;;;;;5001850;28;20436;-66
2023/04/18 01:01:00;;;;;;;16.17;13.60;;;10.70;99.90;;;;;;5003515;28;20623;-66
2023/04/18 01:03:26;;;;;;;16.40;13.73;;;10.70;99.90;;;;;;4999868;28;20228;-66
2023/04/18 01:05:53;;;;;;;16.40;12.60;;;10.70;99.90;;;;;;5001235;28;20272;-66
2023/04/18 01:08:20;;;;;;;15.67;13.03;;;10.70;99.90;;;;;;4999282;28;20182;-66
2023/04/18 01:10:47;;;;;;;14.90;12.73;;;10.60;99.90;;;;;;4997432;28;20459;-66
2023/04/18 01:13:15;;;;;;;17.07;13.50;;;10.60;99.90;;;;;;4996668;28;20447;-66
2023/04/18 01:15:46;;;;;;;16.77;14.13;;;10.60;99.90;;;;;;4998337;28;21077;-66
2023/04/18 01:18:12;;;;;;;14.73;12.90;;;10.60;99.90;;;;;;4997838;28;20437;-66
2023/04/18 01:20:45;;;;;;;16.40;13.90;;;10.60;99.90;;;;;;4997307;28;21560;-66
2023/04/18 01:23:11;;;;;;;17.33;13.97;;;10.60;99.90;;;;;;4999585;28;20464;-66
2023/04/18 01:25:37;;;;;;;14.90;13.40;;;10.60;99.90;;;;;;5000334;28;20502;-66
2023/04/18 01:28:04;;;;;;;15.40;13.57;;;10.70;99.90;;;;;;4999700;28;20846;-66
2023/04/18 01:30:29;;;;;;;15.43;13.83;;;10.70;99.90;;;;;;5001567;28;20887;-66
2023/04/18 01:32:55;;;;;;;16.80;12.50;;;10.70;99.90;;;;;;4999177;28;20522;-66
2023/04/18 01:35:21;;;;;;;17.30;13.37;;;10.70;99.90;;;;;;5003722;28;20189;-66
2023/04/18 01:37:46;;;;;;;14.90;13.00;;;10.80;99.90;;;;;;5002284;28;20254;-66
2023/04/18 01:40:12;;;;;;;18.17;12.00;;;10.80;99.90;;;;;;5015659;28;20201;-66
2023/04/18 01:42:38;;;;;;;16.63;13.87;;;10.80;99.90;;;;;;5002313;28;20561;-66
2023/04/18 01:45:05;;;;;;;14.93;13.27;;;10.80;99.90;;;;;;5001016;28;20292;-66
2023/04/18 01:47:31;;;;;;;16.10;14.03;;;10.90;99.90;;;;;;5000631;28;20560;-66
2023/04/18 01:49:56;;;;;;;15.33;13.23;;;10.90;99.90;;;;;;5003207;28;20456;-66
2023/04/18 01:52:22;;;;;;;13.33;11.93;;;10.90;99.90;;;;;;5002871;28;20217;-66
2023/04/18 01:54:47;;;;;;;14.30;12.90;;;10.90;99.90;;;;;;5002019;28;20189;-65
2023/04/18 01:57:13;;;;;;;15.07;12.90;;;10.90;99.90;;;;;;5002772;28;20778;-66
2023/04/18 01:59:38;;;;;;;14.30;12.53;;;10.90;99.90;;;;;;5001799;28;20221;-65
2023/04/18 02:02:04;;;;;;;15.70;12.80;;;11.00;99.90;;;;;;5000184;28;20181;-66
2023/04/18 02:04:30;;;;;;;16.87;13.90;;;11.00;99.90;;;;;;5001866;28;20685;-66
2023/04/18 02:06:55;;;;;;;16.53;13.73;;;11.00;99.90;;;;;;4997865;28;20817;-66
2023/04/18 02:09:21;;;;;;;18.13;12.70;;;11.00;99.90;;;;;;4998932;28;20608;-66
2023/04/18 02:11:46;;;;;;;14.00;12.60;;;10.90;99.90;;;;;;4999681;28;20538;-66
2023/04/18 02:14:12;;;;;;;15.43;13.80;;;10.90;99.90;;;;;;5000866;28;20280;-66
2023/04/18 02:16:37;;;;;;;15.77;13.40;;;10.90;99.90;;;;;;5000674;28;20931;-66
2023/04/18 02:19:03;;;;;;;15.77;12.63;;;10.90;99.90;;;;;;5003490;28;20264;-66
2023/04/18 02:21:29;;;;;;;16.13;12.77;;;10.90;99.90;;;;;;4997757;28;20231;-66
2023/04/18 02:23:55;;;;;;;15.33;13.03;;;10.90;99.90;;;;;;4998736;28;20483;-66
2023/04/18 02:26:21;;;;;;;14.30;12.80;;;10.80;99.90;;;;;;5002137;28;20181;-66
2023/04/18 02:28:47;;;;;;;13.73;12.33;;;10.80;99.90;;;;;;5002126;28;20443;-66
2023/04/18 02:31:14;;;;;;;15.83;13.43;;;10.80;99.90;;;;;;4999992;28;20451;-66
2023/04/18 02:33:45;;;;;;;13.30;11.90;;;10.80;99.90;;;;;;5002717;28;20837;-66
2023/04/18 02:36:13;;;;;;;15.50;12.60;;;10.80;99.90;;;;;;5000021;28;20436;-66
2023/04/18 02:38:39;;;;;;;14.50;12.80;;;10.80;99.90;;;;;;5001169;28;20444;-66
2023/04/18 02:41:05;;;;;;;15.47;13.30;;;10.80;99.90;;;;;;5001565;28;21027;-66
2023/04/18 02:43:30;;;;;;;15.30;13.15;;;10.80;99.90;;;;;;5002923;28;20213;-66
2023/04/18 02:45:56;;;;;;;18.90;12.57;;;10.90;99.90;;;;;;4999602;28;20433;-66
2023/04/18 02:48:25;;;;;;;15.13;12.63;;;10.90;99.90;;;;;;5002090;28;20606;-66
2023/04/18 02:50:50;;;;;;;14.50;13.00;;;10.90;99.90;;;;;;5002154;28;20200;-66
2023/04/18 02:53:16;;;;;;;14.50;13.00;;;10.90;99.90;;;;;;4999492;28;20984;-66
2023/04/18 02:55:42;;;;;;;16.40;12.80;;;10.90;99.90;;;;;;5001303;28;20180;-66
2023/04/18 02:58:08;;;;;;;19.10;12.87;;;10.90;99.90;;;;;;5000071;28;20178;-66
2023/04/18 03:00:33;;;;;;;18.43;13.07;;;10.90;99.90;;;;;;5001591;28;20209;-66
2023/04/18 03:02:59;;;;;;;14.53;12.93;;;10.90;99.90;;;;;;5000342;28;20443;-66
2023/04/18 03:05:25;;;;;;;17.20;13.53;;;10.90;99.90;;;;;;4999183;28;20200;-66
2023/04/18 03:07:50;;;;;;;14.93;12.97;;;10.90;99.90;;;;;;4999060;28;20753;-66
2023/04/18 03:10:16;;;;;;;15.20;13.00;;;10.90;99.90;;;;;;5000721;28;20212;-66
2023/04/18 03:12:42;;;;;;;15.03;12.93;;;10.90;99.90;;;;;;5015372;28;20213;-66
2023/04/18 03:15:07;;;;;;;15.60;13.00;;;10.90;99.90;;;;;;4999231;28;20174;-66
2023/04/18 03:17:34;;;;;;;15.30;13.70;;;10.90;99.90;;;;;;4993764;28;20204;-66
2023/04/18 03:19:59;;;;;;;16.93;14.90;;;10.90;99.90;;;;;;5001115;28;21279;-66
2023/04/18 03:22:25;;;;;;;16.67;12.40;;;10.90;99.90;;;;;;5001043;28;20447;-65
2023/04/18 03:24:50;;;;;;;15.17;13.00;;;11.00;99.90;;;;;;4996720;28;20228;-66
2023/04/18 03:27:16;;;;;;;15.27;13.03;;;10.90;99.90;;;;;;5002422;28;20185;-66
2023/04/18 03:29:41;;;;;;;16.43;12.90;;;10.90;99.90;;;;;;4993545;28;20207;-66
2023/04/18 03:32:07;;;;;;;17.03;13.47;;;11.00;99.90;;;;;;5000378;28;20267;-66
2023/04/18 03:34:33;;;;;;;15.20;12.50;;;10.90;99.90;;;;;;5001672;28;20714;-66
2023/04/18 03:36:58;;;;;;;19.33;13.30;;;10.90;99.90;;;;;;5003365;28;20659;-66
2023/04/18 03:39:24;;;;;;;20.83;12.60;;;10.90;99.90;;;;;;4999278;28;20757;-66
2023/04/18 03:41:51;;;;;;;13.80;11.27;;;10.90;99.90;;;;;;5004801;28;20197;-67
2023/04/18 03:44:16;;;;;;;16.00;13.37;;;10.90;99.90;;;;;;5004308;28;20291;-66
2023/04/18 03:46:42;;;;;;;16.77;13.23;;;10.90;99.90;;;;;;5004138;28;20518;-66
2023/04/18 03:49:07;;;;;;;15.00;11.80;;;10.90;99.90;;;;;;5004511;28;20196;-66
2023/04/18 03:51:42;;;;;;;15.70;12.07;;;10.90;99.90;;;;;;4999886;28;20291;-66
2023/04/18 03:54:07;;;;;;;14.57;12.87;;;10.90;99.90;;;;;;5004643;28;20224;-66
2023/04/18 03:56:33;;;;;;;15.50;13.00;;;10.90;99.90;;;;;;5005589;28;20447;-65
2023/04/18 03:58:59;;;;;;;13.17;11.77;;;10.90;99.90;;;;;;5002900;28;20197;-66
2023/04/18 04:01:24;;;;;;;15.77;12.80;;;10.90;99.90;;;;;;5005383;28;21012;-67
2023/04/18 04:03:50;;;;;;;15.63;12.63;;;10.90;99.90;;;;;;5003447;28;20696;-67
2023/04/18 04:06:16;;;;;;;17.13;12.93;;;10.90;99.90;;;;;;5006733;28;20181;-67
2023/04/18 04:08:42;;;;;;;15.60;11.13;;;10.80;99.90;;;;;;5003794;28;20184;-65
2023/04/18 04:11:08;;;;;;;15.77;13.10;;;10.90;99.90;;;;;;5005871;28;20439;-66
2023/04/18 04:13:34;;;;;;;13.87;12.10;;;10.80;99.90;;;;;;5003024;28;20185;-66
2023/04/18 04:16:00;;;;;;;15.20;12.97;;;10.80;99.90;;;;;;5002472;28;20361;-67
2023/04/18 04:18:29;;;;;;;16.77;11.47;;;10.80;99.90;;;;;;5004904;28;21721;-67
2023/04/18 04:20:56;;;;;;;15.93;12.70;;;10.80;99.90;;;;;;5002417;28;20212;-67
2023/04/18 04:23:24;;;;;;;19.00;13.67;;;10.80;99.90;;;;;;5005316;28;20460;-66
2023/04/18 04:25:51;;;;;;;14.43;12.33;;;10.80;99.90;;;;;;5003787;28;20989;-66
2023/04/18 04:28:17;;;;;;;16.13;12.83;;;10.90;99.90;;;;;;5005694;28;20420;-66
2023/04/18 04:30:43;;;;;;;11.90;10.57;;;10.90;99.90;;;;;;5002875;28;20475;-66
2023/04/18 04:33:09;;;;;;;17.07;12.93;;;10.80;99.90;;;;;;5002746;28;20497;-67
2023/04/18 04:35:35;;;;;;;15.10;12.20;;;10.80;99.90;;;;;;5005261;28;20181;-67
2023/04/18 04:38:01;;;;;;;14.37;12.00;;;10.80;99.90;;;;;;5004720;28;20267;-66
2023/04/18 04:40:27;;;;;;;14.57;13.00;;;10.80;99.90;;;;;;5004227;28;20472;-66
2023/04/18 04:42:53;;;;;;;12.87;11.60;;;10.70;99.90;;;;;;5006614;28;20448;-67
2023/04/18 04:45:19;;;;;;;16.63;12.60;;;10.80;99.90;;;;;;5002500;28;20247;-66
2023/04/18 04:47:45;;;;;;;15.93;11.80;;;10.80;99.90;;;;;;5002240;28;20444;-66
2023/04/18 04:50:14;;;;;;;13.83;11.77;;;10.70;99.90;;;;;;5003843;28;20444;-66
2023/04/18 04:52:40;;;;;;;13.90;11.60;;;10.80;99.90;;;;;;5003460;28;20536;-66
2023/04/18 04:55:06;;;;;;;18.60;11.93;;;10.70;99.90;;;;;;5017133;28;20852;-66
2023/04/18 04:57:31;;;;;;;12.80;11.40;;;10.70;99.90;;;;;;5002408;28;20436;-66
2023/04/18 04:59:57;;;;;;;14.40;12.30;;;10.70;99.90;;;;;;5003364;28;20205;-66
2023/04/18 05:02:22;;;;;;;14.43;11.90;;;10.70;99.90;;;;;;5021981;28;20192;-65
2023/04/18 05:04:48;;;;;;;18.13;11.60;;;10.70;99.90;;;;;;5003579;28;20237;-66
2023/04/18 05:07:14;;;;;;;19.00;12.10;;;10.70;99.90;;;;;;5006031;28;20585;-65
2023/04/18 05:09:40;;;;;;;14.73;11.77;;;10.80;99.90;;;;;;5001306;28;20447;-67
2023/04/18 05:12:05;;;;;;;15.63;11.63;;;10.80;99.90;;;;;;5002033;28;20246;-67
2023/04/18 05:14:31;;;;;;;14.33;12.17;;;10.80;99.90;;;;;;4997955;28;20204;-66
2023/04/18 05:16:56;;;;;;;15.93;11.93;;;10.80;99.90;;;;;;4998494;28;20236;-67
2023/04/18 05:19:22;;;;;;;17.53;12.77;;;10.80;99.90;;;;;;4998324;28;20236;-67
2023/04/18 05:21:48;;;;;;;14.57;12.00;;;10.80;99.90;;;;;;4998007;28;20210;-66
2023/04/18 05:24:13;;;;;;;14.13;10.90;;;10.80;99.90;;;;;;4998206;28;20534;-66
2023/04/18 05:26:39;;;;;;;14.70;11.30;;;10.80;99.90;;;;;;5001050;28;20192;-66
2023/04/18 05:29:05;;;;;;;13.93;11.70;;;10.80;99.90;;;;;;4997689;28;20189;-66
2023/04/18 05:31:30;;;;;;;14.10;11.90;;;10.80;99.90;;;;;;4996753;28;20224;-66
2023/04/18 05:33:56;;;;;;;12.40;11.10;;;10.80;99.90;;;;;;5014948;28;20182;-67
2023/04/18 05:36:22;;;;;;;14.17;12.60;;;10.80;99.90;;;;;;5001345;28;20271;-67
2023/04/18 05:38:47;;;;;;;14.10;12.50;;;10.80;99.90;;;;;;4999499;28;20212;-67
2023/04/18 05:41:13;;;;;;;14.97;12.00;;;10.80;99.90;;;;;;5000050;28;20683;-67
2023/04/18 05:43:38;;;;;;;13.87;11.37;;;10.90;99.90;;;;;;5000153;28;20228;-67
2023/04/18 05:46:04;;;;;;;12.43;10.33;;;10.80;99.90;;;;;;4995237;28;20204;-66
2023/04/18 05:48:29;;;;;;;14.50;10.40;;;10.80;99.90;;;;;;4997798;28;20274;-67
2023/04/18 05:50:55;;;;;;;17.47;11.97;;;10.80;99.90;;;;;;4997821;28;20749;-66
2023/04/18 05:53:21;;;;;;;13.80;11.73;;;10.90;99.90;;;;;;4999460;28;20181;-66
2023/04/18 05:55:47;;;;;;;14.33;11.13;;;10.90;99.90;;;;;;4996703;28;20189;-67
2023/04/18 05:58:13;;;;;;;17.63;13.27;;;10.80;99.90;;;;;;4998902;28;20771;-67
2023/04/18 06:00:40;;;;;;;14.27;11.80;;;10.90;99.90;;;;;;4999007;28;20459;-66
2023/04/18 06:03:06;;;;;;;14.10;10.83;;;10.90;99.90;;;;;;4998643;28;20448;-66
2023/04/18 06:05:31;;;;;;;18.80;12.17;;;10.90;99.90;;;;;;4997575;28;20530;-66
2023/04/18 06:07:57;;;;;;;12.57;10.97;;;10.90;99.90;;;;;;4999816;28;20181;-67
2023/04/18 06:10:22;;;;;;;19.73;12.10;;;11.00;99.90;;;;;;4998898;28;20208;-66
2023/04/18 06:12:48;;;;;;;16.13;12.70;;;11.00;99.90;;;;;;4999177;28;20246;-66
2023/04/18 06:15:13;;;;;;;18.03;13.10;;;11.00;99.90;;;;;;4996855;28;20236;-67
2023/04/18 06:17:40;;;;;;;16.77;12.10;;;10.90;99.90;;;;;;4999231;28;20199;-66
2023/04/18 06:20:06;;;;;;;12.97;11.13;;;10.90;99.90;;;;;;4998018;28;20240;-66
2023/04/18 06:22:35;;;;;;;18.27;13.40;;;10.90;99.90;;;;;;4997038;28;20447;-67
2023/04/18 06:25:01;;;;;;;13.90;11.57;;;11.00;99.90;;;;;;4996636;28;20468;-66
2023/04/18 06:27:26;;;;;;;18.27;12.93;;;11.00;99.90;;;;;;4997863;28;20814;-66
2023/04/18 06:29:52;;;;;;;15.77;12.90;;;10.90;99.90;;;;;;4998140;28;20196;-67
2023/04/18 06:32:17;;;;;;;16.07;13.30;;;11.00;99.90;;;;;;4996871;28;20185;-67
2023/04/18 06:34:43;;;;;;;17.50;13.13;;;11.00;99.90;;;;;;4998370;28;20204;-70
2023/04/18 06:37:10;;;;;;;20.03;14.27;;;11.10;99.90;;;;;;4994481;28;20209;-68
2023/04/18 06:39:36;;;;;;;19.23;13.60;;;11.10;99.90;;;;;;4999712;28;20190;-66
2023/04/18 06:42:03;;;;;;;15.50;12.87;;;11.20;99.90;;;;;;4992074;28;20474;-67
2023/04/18 06:44:30;;;;;;;16.67;13.53;;;11.30;99.90;;;;;;5001345;28;20212;-67
2023/04/18 06:46:56;;;;;;;13.03;11.67;;;11.30;99.90;;;;;;4999348;28;20486;-67
2023/04/18 06:49:22;;;;;;;15.70;13.37;;;11.30;99.90;;;;;;5000606;28;20447;-66
2023/04/18 06:51:47;;;;;;;14.57;12.00;;;11.30;99.90;;;;;;5001432;28;20458;-66
2023/04/18 06:54:13;;;;;;;14.93;12.80;;;11.40;99.90;;;;;;5016429;28;20652;-66
2023/04/18 06:56:39;;;;;;;13.47;11.63;;;11.40;99.90;;;;;;5002721;28;20667;-66
2023/04/18 06:59:04;;;;;;;13.17;10.97;;;11.50;99.90;;;;;;5000979;28;20193;-66
2023/04/18 07:01:33;;;;;;;13.87;12.30;;;11.50;99.90;;;;;;5001924;28;20242;-66
2023/04/18 07:03:59;;;;;;;14.17;12.10;;;11.50;99.90;;;;;;4998472;28;20596;-66
2023/04/18 07:06:25;;;;;;;15.30;12.17;;;11.50;99.90;;;;;;5001134;28;20518;-66
2023/04/18 07:08:51;;;;;;;15.90;12.00;;;11.50;99.90;;;;;;4996190;28;20232;-67
2023/04/18 07:11:17;;;;;;;14.80;11.67;;;11.50;99.90;;;;;;4995128;28;20455;-67
2023/04/18 07:13:44;;;;;;;15.23;12.40;;;11.50;99.90;;;;;;4995331;28;20433;-66
2023/04/18 07:16:10;;;;;;;15.60;13.50;;;11.50;99.90;;;;;;4997305;28;20914;-66
2023/04/18 07:18:35;;;;;;;15.23;12.30;;;11.50;99.90;;;;;;4999512;28;20585;-66
2023/04/18 07:21:01;;;;;;;15.07;12.60;;;11.50;99.90;;;;;;4998164;28;20212;-67
2023/04/18 07:23:26;;;;;;;15.07;13.47;;;11.60;99.90;;;;;;5000150;28;20921;-66
2023/04/18 07:25:52;;;;;;;14.83;12.70;;;11.70;99.90;;;;;;4996936;28;20205;-66
2023/04/18 07:28:17;;;;;;;14.17;12.33;;;11.80;99.90;;;;;;4998363;28;20271;-67
2023/04/18 07:30:43;;;;;;;14.67;12.00;;;11.90;99.90;;;;;;5000969;28;20228;-67
2023/04/18 07:33:08;;;;;;;15.27;12.30;;;12.00;99.90;;;;;;4999346;28;20242;-66
2023/04/18 07:35:35;;;;;;;17.10;13.10;;;12.00;99.90;;;;;;5000201;28;20189;-67
2023/04/18 07:38:01;;;;;;;14.83;12.37;;;12.00;99.90;;;;;;4999520;28;20672;-66
2023/04/18 07:40:26;;;;;;;15.03;12.70;;;12.10;99.90;;;;;;5001565;28;20460;-66
2023/04/18 07:42:52;;;;;;;17.77;12.83;;;12.10;99.90;;;;;;4998755;28;20174;-67
2023/04/18 07:45:18;;;;;;;13.70;12.20;;;12.10;99.90;;;;;;4998054;28;20212;-67
2023/04/18 07:47:43;;;;;;;18.17;13.10;;;12.10;99.90;;;;;;4998338;28;20205;-67
2023/04/18 07:50:09;;;;;;;14.43;11.87;;;12.10;99.90;;;;;;4995227;28;20205;-65
2023/04/18 07:52:35;;;;;;;15.07;11.83;;;12.20;99.90;;;;;;4999540;28;20169;-67
2023/04/18 07:55:00;;;;;;;17.77;13.47;;;12.30;99.90;;;;;;4999569;28;21027;-67
2023/04/18 07:57:26;;;;;;;13.13;11.73;;;12.40;99.90;;;;;;4997992;28;20828;-65
2023/04/18 07:59:52;;;;;;;17.03;13.30;;;12.50;99.90;;;;;;4996549;28;20200;-66
2023/04/18 08:02:19;;;;;;;14.13;12.50;;;12.70;99.90;;;;;;5000503;28;20702;-66
2023/04/18 08:04:45;;;;;;;15.00;12.90;;;12.80;99.90;;;;;;5000850;28;20727;-66
2023/04/18 08:07:11;;;;;;;26.17;19.40;;;12.90;99.90;;;;;;5001218;28;20432;-66
2023/04/18 08:09:37;;;;;;;14.60;12.67;;;12.90;99.90;;;;;;4999145;28;20859;-65
2023/04/18 08:12:02;;;;;;;21.40;17.33;;;13.00;99.90;;;;;;4999691;28;20181;-66
2023/04/18 08:14:28;;;;;;;16.63;13.53;;;13.10;99.90;;;;;;4996003;28;20196;-65
2023/04/18 08:16:53;;;;;;;14.40;12.60;;;13.20;99.90;;;;;;4997096;28;20185;-66
2023/04/18 08:19:19;;;;;;;15.73;12.53;;;13.20;99.90;;;;;;5000039;28;20185;-66
2023/04/18 08:21:45;;;;;;;14.30;11.83;;;13.10;99.90;;;;;;4998864;28;20197;-66
2023/04/18 08:24:10;;;;;;;14.40;12.33;;;13.10;99.90;;;;;;5001238;28;20255;-66
2023/04/18 08:26:36;;;;;;;15.93;13.00;;;13.20;99.90;;;;;;4998438;28;20583;-66
2023/04/18 08:29:01;;;;;;;14.67;11.90;;;13.20;99.90;;;;;;5000754;28;20647;-66
2023/04/18 08:31:27;;;;;;;16.10;12.83;;;13.20;99.90;;;;;;5004422;28;20231;-64
2023/04/18 08:33:53;;;;;;;13.80;12.10;;;13.20;99.90;;;;;;4999564;28;20173;-67
2023/04/18 08:36:18;;;;;;;17.10;12.47;;;13.20;99.90;;;;;;5002823;28;20189;-67
2023/04/18 08:38:44;;;;;;;13.53;12.13;;;13.20;99.90;;;;;;5001940;28;20260;-66
2023/04/18 08:41:10;;;;;;;14.93;12.13;;;13.10;99.90;;;;;;5002425;28;20775;-67
2023/04/18 08:43:36;;;;;;;19.40;12.20;;;13.20;99.90;;;;;;5004317;28;20186;-67
2023/04/18 08:46:02;;;;;;;13.67;11.63;;;13.30;99.90;;;;;;5001169;28;20695;-67
2023/04/18 08:48:28;;;;;;;13.77;11.53;;;13.40;99.90;;;;;;5004036;28;20432;-67
2023/04/18 08:50:57;;;;;;;14.10;12.00;;;13.60;99.90;;;;;;5001693;28;20225;-67
2023/04/18 08:53:25;;;;;;;18.27;12.70;;;13.60;99.90;;;;;;5001266;28;20180;-67
2023/04/18 08:55:55;;;;;;;14.47;12.63;;;13.60;99.90;;;;;;5003892;28;20440;-67
2023/04/18 08:58:22;;;;;;;14.90;12.20;;;13.60;99.90;;;;;;5003200;28;20786;-67
2023/04/18 09:00:52;;;;;;;13.73;12.10;;;13.50;99.90;;;;;;5001982;28;20470;-67
2023/04/18 09:03:38;;;;;;;16.93;13.30;;;13.50;99.90;;;;;;5002630;28;20531;-67
2023/04/18 09:06:08;;;;;;;16.30;13.00;;;13.60;99.90;;;;;;5002086;28;20539;-67
2023/04/18 09:08:34;;;;;;;15.90;13.50;;;13.60;99.90;;;;;;5001683;28;20440;-67
2023/04/18 09:11:19;;;;;;;17.90;13.23;;;13.60;99.90;;;;;;5002250;28;20487;-67
2023/04/18 09:13:46;;;;;;;14.17;12.67;;;13.70;99.90;;;;;;5001865;28;20424;-67
2023/04/18 09:16:13;;;;;;;14.57;12.33;;;13.90;99.90;;;;;;5001548;28;20846;-67
2023/04/18 09:18:41;;;;;;;15.27;13.30;;;14.10;99.90;;;;;;5000239;28;20940;-67
2023/04/18 09:21:18;;;;;;;16.97;14.50;;;14.30;99.90;;;;;;4999802;28;20474;-67
2023/04/18 09:23:49;;;;;;;17.30;13.30;;;14.50;99.90;;;;;;4998898;28;20685;-67
2023/04/18 09:26:32;;;;;;;15.20;12.03;;;14.70;99.90;;;;;;5002026;28;20444;-67
2023/04/18 09:28:58;;;;;;;15.13;13.53;;;14.90;99.90;;;;;;5002215;28;20447;-67
2023/04/18 09:31:25;;;;;;;14.30;11.53;;;15.00;99.90;;;;;;5006103;28;20466;-67
2023/04/18 09:33:53;;;;;;;16.07;12.03;;;15.20;99.90;;;;;;5001878;28;20894;-67
2023/04/18 09:36:25;;;;;;;16.57;12.90;;;15.30;99.90;;;;;;5000576;28;20470;-66
2023/04/18 09:38:52;;;;;;;13.63;12.10;;;15.30;99.90;;;;;;5001851;28;20461;-66
2023/04/18 09:41:18;;;;;;;13.80;11.60;;;15.50;99.90;;;;;;4999135;28;20591;-67
2023/04/18 09:43:44;;;;;;;14.63;13.10;;;15.70;99.90;;;;;;4999905;28;20567;-67
2023/04/18 09:46:11;;;;;;;16.20;12.10;;;15.90;99.90;;;;;;4997809;28;20463;-66
2023/04/18 09:48:38;;;;;;;13.57;12.17;;;16.20;99.90;;;;;;4998693;28;20555;-66
2023/04/18 09:51:09;;;;;;;14.33;12.60;;;16.30;99.90;;;;;;5017046;28;20463;-66
2023/04/18 09:53:43;;;;;;;15.77;13.00;;;16.40;99.90;;;;;;4999752;28;20431;-66
2023/04/18 09:56:19;;;;;;;14.77;12.47;;;16.30;99.90;;;;;;5000321;28;20809;-66
2023/04/18 09:58:46;;;;;;;14.40;12.87;;;16.20;99.90;;;;;;5000598;28;20518;-66
2023/04/18 10:01:12;;;;;;;14.20;12.27;;;16.00;99.90;;;;;;4999018;28;20465;-66
2023/04/18 10:03:44;;;;;;;15.30;12.90;;;15.90;99.90;;;;;;4999302;28;20452;-66
2023/04/18 10:06:10;;;;;;;16.23;12.70;;;15.80;99.90;;;;;;4999190;28;20502;-66
2023/04/18 10:08:37;;;;;;;22.33;11.67;;;15.60;99.90;;;;;;5002056;28;20519;-66
2023/04/18 10:11:02;;;;;;;14.97;13.17;;;15.50;99.90;;;;;;4997548;28;20468;-66
2023/04/18 10:13:29;;;;;;;16.60;13.63;;;15.40;99.90;;;;;;5002268;28;20487;-66
2023/04/18 10:15:55;;;;;;;13.90;11.90;;;15.30;99.90;;;;;;5000507;28;20268;-66
2023/04/18 10:18:24;;;;;;;19.07;12.53;;;15.30;99.90;;;;;;5003325;28;20530;-65
2023/04/18 10:20:50;;;;;;;16.03;13.10;;;15.20;99.90;;;;;;5002006;28;20324;-65
2023/04/18 10:23:31;;;;;;;15.43;12.43;;;15.10;99.90;;;;;;5001916;28;20514;-65
2023/04/18 10:26:07;;;;;;;15.60;13.13;;;15.00;99.90;;;;;;5000974;28;20502;-65
2023/04/18 10:28:57;;;;;;;16.90;13.30;;;15.00;99.90;;;;;;5000990;28;20858;-65
2023/04/18 10:31:27;;;;;;;16.17;14.10;;;15.10;99.90;;;;;;5002453;28;20471;-65
2023/04/18 10:33:59;;;;;;;18.97;14.70;;;15.20;99.90;;;;;;5002395;28;21101;-66
2023/04/18 10:36:26;;;;;;;16.63;12.77;;;15.30;99.90;;;;;;5002971;28;20448;-66
2023/04/18 10:38:55;;;;;;;14.93;13.30;;;15.50;99.90;;;;;;5001142;28;21045;-66
2023/04/18 10:41:21;;;;;;;19.13;11.97;;;15.60;99.90;;;;;;4998863;28;20464;-66
2023/04/18 10:44:05;;;;;;;18.13;13.97;;;15.70;99.90;;;;;;5001245;28;20463;-66
2023/04/18 10:46:49;;;;;;;15.70;12.40;;;15.90;99.90;;;;;;5003055;28;20427;-66
2023/04/18 10:49:22;;;;;;;14.70;13.20;;;16.00;99.90;;;;;;5015874;28;20444;-66
2023/04/18 10:51:59;;;;;;;14.63;12.73;;;16.10;99.90;;;;;;5000376;28;20447;-66
2023/04/18 10:54:34;;;;;;;14.07;12.47;;;16.20;99.90;;;;;;5001467;28;20439;-66
2023/04/18 10:57:02;;;;;;;16.27;13.67;;;16.20;99.90;;;;;;5000021;28;20803;-66
2023/04/18 10:59:30;;;;;;;14.57;12.47;;;16.20;99.90;;;;;;5000436;28;20472;-66
2023/04/18 11:02:01;;;;;;;13.83;12.33;;;16.30;99.90;;;;;;5002215;28;20834;-66
2023/04/18 11:04:27;;;;;;;21.07;18.90;;;16.40;99.90;;;;;;4997458;28;20472;-66
2023/04/18 11:06:57;;;;;;;14.90;13.27;;;16.30;99.90;;;;;;4998359;28;20466;-66
2023/04/18 11:09:23;;;;;;;18.27;15.23;;;16.40;99.90;;;;;;4997771;28;20997;-66
2023/04/18 11:12:09;;;;;;;14.90;13.27;;;16.40;99.90;;;;;;4999916;28;20466;-66
2023/04/18 11:14:53;;;;;;;15.77;12.90;;;16.30;99.90;;;;;;4998687;28;20435;-66
2023/04/18 11:17:20;;;;;;;16.70;15.20;;;16.30;99.90;;;;;;5000375;28;20444;-65
2023/04/18 11:19:46;;;;;;;18.30;16.30;;;16.30;99.90;;;;;;5001099;28;21003;-66
2023/04/18 11:22:13;;;;;;;17.50;12.80;;;16.20;99.90;;;;;;4999845;28;20467;-65
2023/04/18 11:24:39;;;;;;;18.70;16.67;;;16.20;99.90;;;;;;4998598;28;20468;-65
2023/04/18 11:27:07;;;;;;;17.53;15.27;;;16.20;99.90;;;;;;4999401;28;20447;-65
2023/04/18 11:29:33;;;;;;;13.20;11.87;;;16.30;99.90;;;;;;5002472;28;20640;-65
2023/04/18 11:31:58;;;;;;;13.13;11.80;;;16.50;99.90;;;;;;5016724;28;20463;-65
2023/04/18 11:34:29;;;;;;;14.30;12.63;;;16.60;99.90;;;;;;5016183;28;20180;-65
2023/04/18 11:36:55;;;;;;;12.90;11.50;;;16.70;99.90;;;;;;5001616;28;20189;-66
2023/04/18 11:39:21;;;;;;;16.10;12.27;;;17.00;99.90;;;;;;5001189;28;20447;-66
2023/04/18 11:41:50;;;;;;;12.60;11.10;;;17.10;99.90;;;;;;5000117;28;20333;-65
2023/04/18 11:44:17;;;;;;;14.07;11.83;;;17.20;99.90;;;;;;5000253;28;20471;-65
2023/04/18 11:46:43;;;;;;;11.60;10.50;;;17.30;99.90;;;;;;5000335;28;20456;-65
2023/04/18 11:49:30;;;;;;;12.67;11.47;;;17.30;99.90;;;;;;5001336;28;20436;-65
2023/04/18 11:51:57;;;;;;;12.30;11.00;;;17.30;99.90;;;;;;5001658;28;20892;-65
2023/04/18 11:54:39;;;;;;;12.13;10.93;;;17.20;99.90;;;;;;5000346;28;20799;-66
2023/04/18 11:57:05;;;;;;;12.00;10.77;;;17.20;99.90;;;;;;5001631;28;20563;-66
2023/04/18 11:59:32;;;;;;;12.20;10.93;;;17.10;99.90;;;;;;5005694;28;20444;-66
2023/04/18 12:02:01;;;;;;;12.40;11.17;;;17.00;99.90;;;;;;5007195;28;20531;-66
2023/04/18 12:04:27;;;;;;;12.50;11.20;;;17.00;99.90;;;;;;5001874;28;20474;-65
2023/04/18 12:06:53;;;;;;;11.73;9.80;;;16.90;99.90;;;;;;5005552;28;20941;-65
2023/04/18 12:09:21;;;;;;;11.93;10.47;;;16.90;99.90;;;;;;5004120;28;20181;-65
2023/04/18 12:11:57;;;;;;;11.30;9.70;;;16.80;99.90;;;;;;5004605;28;20494;-65
2023/04/18 12:14:23;;;;;;;12.70;11.40;;;16.80;99.90;;;;;;5004107;28;20485;-65
2023/04/18 12:16:49;;;;;;;12.13;10.73;;;16.80;99.90;;;;;;5005352;28;20507;-65
2023/04/18 12:19:15;;;;;;;15.50;10.83;;;16.80;99.90;;;;;;5001788;28;20192;-66
2023/04/18 12:21:59;;;;;;;13.67;10.77;;;16.90;99.90;;;;;;5002944;28;20582;-66
2023/04/18 12:24:25;;;;;;;11.73;10.47;;;16.90;99.90;;;;;;5002206;28;20463;-66
2023/04/18 12:26:51;;;;;;;11.80;10.37;;;17.00;99.90;;;;;;5003855;28;20454;-66